createdAt,value
2019-03-18T00:00:41.736Z,5.10
2019-03-18T00:03:08.012Z,5.10
2019-03-18T00:05:34.269Z,5.10
2019-03-18T00:08:00.670Z,5.10
2019-03-18T00:10:26.952Z,5.10
2019-03-18T00:12:53.424Z,5.10
2019-03-18T00:15:19.892Z,5.00
2019-03-18T00:17:46.165Z,5.00
2019-03-18T00:20:12.818Z,5.00
2019-03-18T00:22:39.079Z,5.10
2019-03-18T00:25:14.930Z,5.00
2019-03-18T00:27:41.418Z,5.00
2019-03-18T00:30:15.150Z,5.00
2019-03-18T00:32:41.394Z,5.00
2019-03-18T00:35:07.957Z,5.00
2019-03-18T00:37:34.238Z,5.00
2019-03-18T00:40:00.581Z,4.90
2019-03-18T00:42:27.097Z,4.90
2019-03-18T00:44:53.342Z,4.90
2019-03-18T00:47:19.628Z,4.90
2019-03-18T00:49:45.900Z,4.90
2019-03-18T00:52:12.160Z,4.80
2019-03-18T00:54:38.429Z,4.80
2019-03-18T00:57:04.718Z,4.80
2019-03-18T00:59:30.962Z,4.80
2019-03-18T01:01:57.220Z,4.90
2019-03-18T01:04:23.520Z,4.90
2019-03-18T01:06:49.864Z,4.90
2019-03-18T01:09:16.214Z,4.90
2019-03-18T01:11:44.533Z,4.80
2019-03-18T01:14:10.867Z,4.80
2019-03-18T01:16:37.102Z,4.80
2019-03-18T01:19:03.381Z,4.80
2019-03-18T01:21:29.783Z,4.80
2019-03-18T01:23:56.011Z,4.80
2019-03-18T01:26:22.305Z,4.80
2019-03-18T01:28:48.559Z,4.70
2019-03-18T01:31:14.836Z,4.70
2019-03-18T01:33:41.090Z,4.70
2019-03-18T01:36:07.375Z,4.70
2019-03-18T01:38:33.736Z,4.70
2019-03-18T01:41:00.012Z,4.70
2019-03-18T01:43:26.272Z,4.60
2019-03-18T01:45:52.543Z,4.70
2019-03-18T01:48:18.846Z,4.60
2019-03-18T01:50:45.102Z,4.60
2019-03-18T01:53:13.250Z,4.70
2019-03-18T01:55:39.542Z,4.70
2019-03-18T01:58:05.841Z,4.70
2019-03-18T02:00:32.181Z,4.70
2019-03-18T02:02:58.460Z,4.60
2019-03-18T02:05:24.844Z,4.60
2019-03-18T02:07:51.110Z,4.60
2019-03-18T02:10:17.361Z,4.60
2019-03-18T02:12:43.744Z,4.60
2019-03-18T02:15:14.044Z,4.60
2019-03-18T02:17:40.403Z,4.60
2019-03-18T02:20:13.715Z,4.60
2019-03-18T02:22:39.985Z,4.60
2019-03-18T02:25:08.437Z,4.60
2019-03-18T02:27:34.715Z,4.60
2019-03-18T02:30:01.421Z,4.60
2019-03-18T02:32:27.767Z,4.60
2019-03-18T02:34:54.157Z,4.60
2019-03-18T02:37:20.398Z,4.60
2019-03-18T02:39:46.642Z,4.60
2019-03-18T02:42:12.919Z,4.60
2019-03-18T02:44:39.168Z,4.70
2019-03-18T02:47:05.547Z,4.60
2019-03-18T02:49:31.785Z,4.60
2019-03-18T02:51:58.056Z,4.60
2019-03-18T02:54:24.305Z,4.60
2019-03-18T02:56:50.549Z,4.60
2019-03-18T02:59:16.833Z,4.60
2019-03-18T03:01:43.229Z,4.60
2019-03-18T03:04:09.589Z,4.50
2019-03-18T03:06:35.908Z,4.60
2019-03-18T03:09:05.340Z,4.60
2019-03-18T03:11:34.260Z,4.50
2019-03-18T03:13:59.985Z,4.60
2019-03-18T03:16:27.694Z,4.50
2019-03-18T03:18:54.555Z,4.50
2019-03-18T03:21:20.927Z,4.50
2019-03-18T03:23:47.196Z,4.50
2019-03-18T03:26:13.503Z,4.50
2019-03-18T03:28:39.757Z,4.50
2019-03-18T03:31:06.037Z,4.50
2019-03-18T03:33:32.328Z,4.50
2019-03-18T03:35:58.535Z,4.60
2019-03-18T03:38:24.968Z,4.50
2019-03-18T03:40:51.314Z,4.50
2019-03-18T03:43:17.577Z,4.60
2019-03-18T03:45:43.837Z,4.50
2019-03-18T03:48:10.086Z,4.60
2019-03-18T03:50:36.464Z,4.50
2019-03-18T03:53:02.711Z,4.60
2019-03-18T03:55:29.100Z,4.50
2019-03-18T03:57:55.364Z,4.50
2019-03-18T04:00:21.845Z,4.50
2019-03-18T04:02:48.100Z,4.50
2019-03-18T04:05:14.383Z,4.50
2019-03-18T04:07:40.920Z,4.50
2019-03-18T04:10:12.341Z,4.50
2019-03-18T04:12:38.726Z,4.50
2019-03-18T04:15:13.391Z,4.60
2019-03-18T04:17:39.644Z,4.60
2019-03-18T04:20:12.385Z,4.60
2019-03-18T04:22:38.643Z,4.60
2019-03-18T04:25:06.818Z,4.50
2019-03-18T04:27:33.180Z,4.50
2019-03-18T04:29:59.693Z,4.50
2019-03-18T04:32:25.953Z,4.50
2019-03-18T04:34:52.195Z,4.50
2019-03-18T04:37:18.446Z,4.50
2019-03-18T04:39:44.727Z,4.50
2019-03-18T04:42:11.073Z,4.50
2019-03-18T04:44:37.350Z,4.50
2019-03-18T04:47:13.715Z,4.40
2019-03-18T04:49:31.892Z,4.30
2019-03-18T04:51:58.155Z,4.30
2019-03-18T04:54:24.423Z,4.20
2019-03-18T04:56:51.182Z,4.20
2019-03-18T04:59:17.436Z,4.20
2019-03-18T05:01:43.687Z,4.20
2019-03-18T05:04:10.105Z,4.20
2019-03-18T05:06:36.393Z,4.20
2019-03-18T05:09:04.779Z,4.20
2019-03-18T05:11:31.023Z,4.20
2019-03-18T05:13:57.462Z,4.20
2019-03-18T05:16:23.748Z,4.30
2019-03-18T05:18:50.006Z,4.20
2019-03-18T05:21:16.310Z,4.20
2019-03-18T05:23:44.527Z,4.20
2019-03-18T05:26:11.948Z,4.10
2019-03-18T05:28:38.691Z,4.20
2019-03-18T05:31:04.956Z,4.20
2019-03-18T05:33:31.513Z,4.20
2019-03-18T05:35:57.809Z,4.20
2019-03-18T05:38:24.301Z,4.10
2019-03-18T05:40:50.668Z,4.20
2019-03-18T05:43:16.937Z,4.20
2019-03-18T05:45:43.183Z,4.50
2019-03-18T05:48:09.669Z,5.00
2019-03-18T05:50:36.082Z,5.20
2019-03-18T05:53:02.347Z,5.20
2019-03-18T05:55:28.634Z,5.10
2019-03-18T05:57:54.910Z,5.10
2019-03-18T06:00:21.192Z,5.00
2019-03-18T06:02:47.785Z,5.00
2019-03-18T06:05:14.056Z,4.90
2019-03-18T06:07:40.392Z,4.80
2019-03-18T06:10:10.286Z,4.80
2019-03-18T06:12:36.596Z,4.80
2019-03-18T06:15:07.160Z,4.80
2019-03-18T06:17:33.440Z,4.80
2019-03-18T06:20:00.314Z,4.70
2019-03-18T06:22:26.840Z,4.70
2019-03-18T06:24:53.106Z,4.60
2019-03-18T06:27:19.461Z,4.50
2019-03-18T06:29:45.871Z,4.50
2019-03-18T06:32:12.115Z,4.40
2019-03-18T06:34:41.875Z,4.40
2019-03-18T06:37:08.121Z,4.30
2019-03-18T06:39:34.394Z,4.30
2019-03-18T06:42:00.688Z,4.40
2019-03-18T06:44:28.892Z,4.40
2019-03-18T06:46:55.345Z,4.90
2019-03-18T06:49:21.601Z,5.40
2019-03-18T06:51:47.880Z,5.50
2019-03-18T06:54:14.123Z,5.50
2019-03-18T06:56:40.520Z,5.30
2019-03-18T06:59:06.792Z,5.30
2019-03-18T07:01:33.230Z,5.20
2019-03-18T07:04:00.669Z,5.10
2019-03-18T07:06:26.981Z,5.00
2019-03-18T07:08:53.210Z,5.00
2019-03-18T07:11:19.463Z,4.90
2019-03-18T07:13:46.057Z,4.90
2019-03-18T07:16:13.351Z,4.90
2019-03-18T07:18:39.687Z,5.00
2019-03-18T07:21:05.957Z,5.00
2019-03-18T07:23:32.222Z,5.00
2019-03-18T07:26:00.492Z,5.00
2019-03-18T07:28:26.763Z,5.00
2019-03-18T07:30:55.061Z,5.00
2019-03-18T07:33:21.519Z,5.00
2019-03-18T07:35:47.746Z,5.10
2019-03-18T07:38:14.138Z,5.00
2019-03-18T07:40:40.387Z,5.10
2019-03-18T07:43:06.659Z,5.10
2019-03-18T07:45:32.939Z,5.10
2019-03-18T07:47:59.213Z,5.20
2019-03-18T07:50:25.464Z,5.20
2019-03-18T07:52:51.744Z,5.20
2019-03-18T07:55:18.101Z,5.30
2019-03-18T07:57:44.348Z,5.30
2019-03-18T08:00:14.605Z,5.40
2019-03-18T08:02:40.882Z,5.50
2019-03-18T08:05:08.752Z,5.50
2019-03-18T08:07:35.019Z,5.60
2019-03-18T08:10:01.273Z,5.70
2019-03-18T08:12:27.654Z,5.70
2019-03-18T08:14:53.911Z,5.80
2019-03-18T08:17:20.285Z,5.80
2019-03-18T08:19:46.569Z,5.80
2019-03-18T08:22:13.090Z,5.90
2019-03-18T08:24:39.354Z,5.90
2019-03-18T08:27:05.617Z,6.00
2019-03-18T08:29:31.998Z,5.90
2019-03-18T08:31:58.276Z,5.90
2019-03-18T08:34:24.536Z,5.90
2019-03-18T08:36:50.816Z,5.80
2019-03-18T08:39:17.115Z,5.80
2019-03-18T08:41:43.345Z,5.80
2019-03-18T08:44:09.621Z,5.90
2019-03-18T08:46:35.919Z,5.90
2019-03-18T08:49:02.362Z,5.90
2019-03-18T08:51:28.640Z,6.00
2019-03-18T08:53:54.898Z,6.10
2019-03-18T08:56:21.158Z,6.10
2019-03-18T08:58:47.524Z,6.20
2019-03-18T09:01:13.807Z,6.30
2019-03-18T09:03:40.102Z,6.30
2019-03-18T09:06:06.354Z,6.40
2019-03-18T09:08:32.621Z,6.40
2019-03-18T09:10:58.877Z,6.50
2019-03-18T09:13:25.135Z,6.50
2019-03-18T09:15:51.398Z,6.50
2019-03-18T09:18:17.672Z,6.40
2019-03-18T09:20:43.949Z,6.40
2019-03-18T09:23:10.194Z,6.40
2019-03-18T09:25:36.552Z,6.40
2019-03-18T09:28:02.899Z,6.50
2019-03-18T09:30:29.162Z,6.60
2019-03-18T09:32:55.457Z,6.70
2019-03-18T09:35:21.822Z,6.70
2019-03-18T09:37:48.461Z,6.90
2019-03-18T09:40:15.715Z,7.00
2019-03-18T09:42:42.066Z,7.10
2019-03-18T09:45:16.060Z,7.20
2019-03-18T09:47:42.300Z,7.30
2019-03-18T09:50:09.550Z,7.30
2019-03-18T09:52:37.058Z,7.30
2019-03-18T09:55:05.723Z,7.30
2019-03-18T09:57:31.977Z,7.50
2019-03-18T09:59:58.235Z,7.90
2019-03-18T10:02:24.550Z,8.40
2019-03-18T10:04:50.954Z,8.90
2019-03-18T10:07:17.279Z,9.40
2019-03-18T10:09:43.650Z,9.90
2019-03-18T10:12:10.052Z,10.30
2019-03-18T10:14:36.301Z,10.60
2019-03-18T10:17:09.495Z,10.70
2019-03-18T10:19:33.626Z,10.70
2019-03-18T10:21:59.183Z,10.60
2019-03-18T10:24:25.451Z,10.40
2019-03-18T10:26:52.036Z,10.20
2019-03-18T10:29:18.629Z,9.90
2019-03-18T10:31:44.879Z,9.90
2019-03-18T10:34:11.198Z,10.10
2019-03-18T10:36:37.466Z,10.30
2019-03-18T10:39:05.629Z,10.40
2019-03-18T10:41:31.892Z,10.40
2019-03-18T10:43:58.170Z,10.20
2019-03-18T10:46:26.375Z,10.00
2019-03-18T10:48:52.810Z,9.90
2019-03-18T10:51:19.148Z,9.60
2019-03-18T10:53:45.423Z,9.50
2019-03-18T10:56:11.677Z,9.50
2019-03-18T10:58:37.921Z,9.70
2019-03-18T11:01:04.201Z,9.90
2019-03-18T11:03:30.501Z,10.10
2019-03-18T11:05:56.844Z,10.50
2019-03-18T11:08:23.100Z,11.00
2019-03-18T11:10:49.364Z,11.20
2019-03-18T11:13:15.609Z,11.30
2019-03-18T11:15:41.867Z,11.10
2019-03-18T11:18:08.480Z,11.00
2019-03-18T11:20:35.778Z,11.00
2019-03-18T11:23:02.981Z,10.90
2019-03-18T11:25:30.153Z,10.80
2019-03-18T11:27:57.294Z,10.60
2019-03-18T11:30:24.432Z,10.60
2019-03-18T11:32:51.434Z,10.30
2019-03-18T11:35:18.570Z,9.90
2019-03-18T11:37:45.747Z,9.60
2019-03-18T11:40:20.464Z,9.40
2019-03-18T11:42:47.651Z,9.20
2019-03-18T11:45:15.740Z,9.00
2019-03-18T11:47:42.800Z,8.80
2019-03-18T11:50:14.735Z,8.70
2019-03-18T11:52:41.289Z,8.60
2019-03-18T11:55:12.812Z,8.60
2019-03-18T11:57:39.189Z,8.60
2019-03-18T12:00:13.318Z,8.60
2019-03-18T12:02:39.907Z,8.60
2019-03-18T12:05:10.688Z,8.60
2019-03-18T12:07:37.073Z,8.60
2019-03-18T12:10:09.034Z,8.50
2019-03-18T12:12:35.468Z,8.50
2019-03-18T12:15:03.533Z,8.60
2019-03-18T12:17:29.811Z,8.60
2019-03-18T12:19:56.380Z,8.70
2019-03-18T12:22:22.628Z,8.70
2019-03-18T12:24:51.079Z,8.70
2019-03-18T12:27:17.319Z,8.60
2019-03-18T12:29:43.618Z,8.60
2019-03-18T12:32:09.975Z,8.80
2019-03-18T12:34:36.822Z,8.90
2019-03-18T12:37:03.114Z,8.90
2019-03-18T12:39:29.505Z,8.90
2019-03-18T12:41:55.754Z,8.90
2019-03-18T12:44:22.127Z,8.90
2019-03-18T12:46:48.443Z,8.90
2019-03-18T12:49:14.816Z,8.90
2019-03-18T12:51:41.086Z,8.90
2019-03-18T12:54:07.435Z,8.90
2019-03-18T12:56:33.820Z,9.00
2019-03-18T12:59:00.102Z,9.00
2019-03-18T13:01:26.366Z,8.90
2019-03-18T13:03:53.043Z,8.90
2019-03-18T13:06:19.316Z,8.80
2019-03-18T13:08:45.578Z,8.80
2019-03-18T13:11:12.103Z,8.80
2019-03-18T13:13:38.347Z,8.70
2019-03-18T13:16:04.695Z,8.70
2019-03-18T13:18:31.068Z,8.60
2019-03-18T13:21:07.253Z,8.50
2019-03-18T13:23:25.685Z,8.50
2019-03-18T13:25:52.045Z,8.50
2019-03-18T13:28:18.308Z,8.60
2019-03-18T13:30:44.566Z,8.60
2019-03-18T13:33:10.986Z,8.60
2019-03-18T13:35:37.260Z,8.70
2019-03-18T13:38:03.785Z,8.80
2019-03-18T13:40:30.071Z,8.80
2019-03-18T13:42:56.606Z,8.80
2019-03-18T13:45:23.186Z,8.80
2019-03-18T13:47:49.375Z,8.80
2019-03-18T13:50:22.676Z,8.80
2019-03-18T13:52:49.144Z,8.80
2019-03-18T13:55:15.648Z,8.90
2019-03-18T13:57:42.127Z,8.90
2019-03-18T14:00:23.017Z,8.90
2019-03-18T14:02:49.408Z,9.00
2019-03-18T14:05:15.963Z,9.00
2019-03-18T14:07:42.625Z,9.00
2019-03-18T14:10:22.334Z,9.00
2019-03-18T14:12:48.945Z,9.00
2019-03-18T14:15:21.179Z,8.90
2019-03-18T14:17:47.633Z,8.90
2019-03-18T14:20:20.376Z,8.90
2019-03-18T14:22:46.629Z,8.90
2019-03-18T14:25:13.200Z,8.90
2019-03-18T14:27:39.653Z,8.80
2019-03-18T14:30:15.288Z,8.80
2019-03-18T14:32:41.748Z,8.80
2019-03-18T14:35:08.633Z,8.80
2019-03-18T14:37:34.901Z,8.80
2019-03-18T14:40:01.148Z,8.70
2019-03-18T14:42:27.413Z,8.60
2019-03-18T14:44:53.704Z,8.60
2019-03-18T14:47:20.006Z,8.60
2019-03-18T14:49:46.569Z,8.50
2019-03-18T14:52:12.829Z,8.50
2019-03-18T14:54:39.085Z,8.40
2019-03-18T14:57:05.389Z,8.40
2019-03-18T14:59:31.857Z,8.40
2019-03-18T15:01:58.126Z,8.50
2019-03-18T15:04:24.415Z,8.50
2019-03-18T15:06:50.782Z,8.50
2019-03-18T15:09:17.037Z,8.60
2019-03-18T15:11:45.599Z,8.60
2019-03-18T15:14:11.841Z,8.70
2019-03-18T15:16:38.903Z,8.80
2019-03-18T15:19:05.164Z,8.80
2019-03-18T15:21:31.543Z,8.80
2019-03-18T15:23:57.893Z,8.70
2019-03-18T15:26:24.667Z,8.60
2019-03-18T15:28:51.153Z,8.60
2019-03-18T15:31:17.787Z,8.50
2019-03-18T15:33:44.108Z,8.50
2019-03-18T15:36:10.381Z,8.40
2019-03-18T15:38:36.958Z,8.30
2019-03-18T15:41:03.365Z,8.30
2019-03-18T15:43:29.620Z,8.30
2019-03-18T15:45:55.892Z,8.20
2019-03-18T15:48:22.517Z,8.10
2019-03-18T15:50:48.796Z,8.00
2019-03-18T15:53:15.390Z,7.90
2019-03-18T15:55:44.907Z,7.80
2019-03-18T15:58:11.302Z,7.60
2019-03-18T16:00:37.680Z,7.50
2019-03-18T16:03:04.042Z,7.40
2019-03-18T16:05:31.522Z,7.20
2019-03-18T16:07:57.871Z,7.10
2019-03-18T16:10:24.487Z,6.90
2019-03-18T16:12:50.830Z,6.70
2019-03-18T16:15:17.294Z,6.60
2019-03-18T16:17:43.702Z,6.50
2019-03-18T16:20:39.110Z,6.40
2019-03-18T16:23:05.376Z,6.40
2019-03-18T16:25:31.657Z,6.30
2019-03-18T16:27:58.310Z,6.30
2019-03-18T16:30:24.655Z,6.20
2019-03-18T16:32:51.183Z,6.10
2019-03-18T16:35:17.562Z,6.10
2019-03-18T16:37:44.191Z,6.10
2019-03-18T16:40:23.302Z,6.00
2019-03-18T16:42:49.669Z,6.00
2019-03-18T16:45:17.460Z,5.90
2019-03-18T16:47:43.916Z,5.80
2019-03-18T16:50:15.875Z,5.70
2019-03-18T16:52:42.626Z,5.70
2019-03-18T16:55:09.065Z,5.70
2019-03-18T16:57:35.337Z,5.70
2019-03-18T17:00:06.301Z,5.60
2019-03-18T17:02:32.747Z,5.50
2019-03-18T17:04:59.157Z,5.40
2019-03-18T17:07:25.602Z,5.40
2019-03-18T17:09:51.903Z,5.30
2019-03-18T17:12:18.164Z,5.30
2019-03-18T17:14:44.546Z,5.30
2019-03-18T17:17:10.786Z,5.20
2019-03-18T17:19:37.200Z,5.20
2019-03-18T17:22:03.498Z,5.10
2019-03-18T17:24:29.785Z,5.10
2019-03-18T17:26:56.163Z,5.10
2019-03-18T17:29:22.429Z,5.00
2019-03-18T17:31:48.715Z,5.00
2019-03-18T17:34:14.977Z,5.00
2019-03-18T17:36:41.314Z,5.00
2019-03-18T17:39:07.679Z,5.00
2019-03-18T17:41:34.039Z,4.90
2019-03-18T17:44:00.319Z,4.90
2019-03-18T17:46:26.591Z,4.90
2019-03-18T17:48:52.900Z,4.90
2019-03-18T17:51:19.247Z,4.90
2019-03-18T17:53:45.564Z,4.90
2019-03-18T17:56:11.847Z,4.80
2019-03-18T17:58:38.132Z,4.80
2019-03-18T18:01:04.753Z,4.80
2019-03-18T18:03:31.014Z,4.80
2019-03-18T18:05:57.436Z,4.80
2019-03-18T18:08:23.844Z,4.80
2019-03-18T18:10:50.230Z,5.00
2019-03-18T18:13:16.617Z,5.20
2019-03-18T18:15:43.266Z,5.40
2019-03-18T18:18:09.512Z,5.40
2019-03-18T18:20:37.749Z,5.50
2019-03-18T18:23:13.687Z,5.50
2019-03-18T18:25:32.249Z,5.50
2019-03-18T18:27:58.674Z,5.50
2019-03-18T18:30:25.036Z,5.50
2019-03-18T18:32:51.308Z,5.50
2019-03-18T18:35:17.706Z,5.50
2019-03-18T18:37:43.967Z,5.40
2019-03-18T18:40:22.132Z,5.20
2019-03-18T18:42:48.549Z,5.20
2019-03-18T18:45:15.178Z,5.20
2019-03-18T18:47:41.937Z,5.10
2019-03-18T18:50:10.194Z,5.00
2019-03-18T18:52:36.658Z,4.90
2019-03-18T18:55:09.109Z,4.70
2019-03-18T18:57:35.388Z,4.60
2019-03-18T19:00:05.917Z,4.60
2019-03-18T19:02:33.291Z,4.50
2019-03-18T19:05:07.664Z,4.50
2019-03-18T19:14:03.016Z,4.30
2019-03-18T19:16:31.155Z,4.30
2019-03-18T19:19:00.888Z,4.20
2019-03-18T19:21:29.357Z,4.20
2019-03-18T19:24:04.308Z,4.20
2019-03-18T19:26:37.470Z,4.20
2019-03-18T19:29:34.261Z,4.10
2019-03-18T19:32:08.133Z,4.10
2019-03-18T19:34:53.146Z,4.10
2019-03-18T19:37:25.682Z,4.10
2019-03-18T19:39:55.459Z,4.00
2019-03-18T19:42:24.386Z,4.00
2019-03-18T19:44:54.957Z,3.90
2019-03-18T19:47:23.582Z,3.80
2019-03-18T19:49:51.752Z,3.70
2019-03-18T19:52:19.711Z,3.70
2019-03-18T19:54:47.714Z,3.70
2019-03-18T19:57:15.795Z,3.70
2019-03-18T19:59:43.859Z,3.80
2019-03-18T20:02:11.748Z,3.80
2019-03-18T20:04:39.761Z,3.80
2019-03-18T20:07:08.057Z,3.80
2019-03-18T20:09:36.219Z,3.80
2019-03-18T20:12:05.503Z,3.80
2019-03-18T20:14:33.379Z,3.90
2019-03-18T20:17:01.493Z,3.90
2019-03-18T20:19:29.445Z,4.10
2019-03-18T20:21:57.329Z,4.00
2019-03-18T20:24:25.713Z,4.00
2019-03-18T20:26:53.709Z,4.10
2019-03-18T20:29:21.798Z,4.10
2019-03-18T20:31:49.808Z,4.10
2019-03-18T20:34:17.838Z,4.10
2019-03-18T20:36:45.749Z,4.20
2019-03-18T20:39:13.699Z,4.20
2019-03-18T20:41:41.951Z,4.30
2019-03-18T20:44:09.943Z,4.30
2019-03-18T20:46:40.497Z,4.30
2019-03-18T20:49:08.501Z,4.40
2019-03-18T20:51:36.310Z,4.40
2019-03-18T20:54:12.060Z,4.50
2019-03-18T20:56:34.562Z,4.50
2019-03-18T20:59:03.137Z,4.50
2019-03-18T21:01:31.017Z,4.50
2019-03-18T21:03:58.919Z,4.50
2019-03-18T21:06:26.944Z,4.50
2019-03-18T21:08:54.999Z,4.50
2019-03-18T21:11:23.011Z,4.50
2019-03-18T21:13:57.155Z,4.60
2019-03-18T21:16:21.216Z,4.60
2019-03-18T21:18:49.147Z,4.60
2019-03-18T21:21:17.086Z,4.60
2019-03-18T21:23:44.944Z,4.60
2019-03-18T21:26:13.263Z,4.60
2019-03-18T21:28:41.712Z,4.60
2019-03-18T21:31:09.757Z,4.70
2019-03-18T21:33:37.528Z,4.70
2019-03-18T21:36:04.266Z,4.70
2019-03-18T21:38:30.731Z,4.70
2019-03-18T21:40:57.022Z,4.80
2019-03-18T21:43:23.355Z,4.80
2019-03-18T21:45:49.619Z,4.80
2019-03-18T21:48:15.998Z,4.80
2019-03-18T21:50:42.413Z,4.80
2019-03-18T21:53:08.698Z,4.80
2019-03-18T21:55:35.129Z,4.80
2019-03-18T21:58:01.627Z,4.80
2019-03-18T22:00:40.260Z,4.80
2019-03-18T22:03:09.950Z,4.70
2019-03-18T22:05:41.521Z,4.70
2019-03-18T22:08:24.692Z,4.70
2019-03-18T22:11:07.472Z,4.70
2019-03-18T22:13:38.594Z,4.60
2019-03-18T22:16:11.117Z,4.60
2019-03-18T22:18:42.382Z,4.50
2019-03-18T22:21:15.377Z,4.50
2019-03-18T22:23:46.628Z,4.40
2019-03-18T22:26:18.249Z,4.40
2019-03-18T22:28:48.879Z,4.30
2019-03-18T22:31:24.861Z,4.30
2019-03-18T22:33:57.492Z,4.30
2019-03-18T22:36:26.103Z,4.30
2019-03-18T22:38:54.985Z,4.20
2019-03-18T22:41:23.655Z,4.20
2019-03-18T22:43:53.094Z,4.20
2019-03-18T22:46:22.705Z,4.20
2019-03-18T22:48:54.236Z,4.10
2019-03-18T22:51:27.070Z,4.10
2019-03-18T22:53:58.179Z,4.10
2019-03-18T22:56:27.075Z,4.00
2019-03-18T22:58:57.993Z,4.00
2019-03-18T23:01:27.110Z,3.90
2019-03-18T23:03:56.754Z,3.90
2019-03-18T23:06:26.506Z,3.90
2019-03-18T23:08:56.723Z,3.80
2019-03-18T23:11:26.683Z,3.80
2019-03-18T23:13:56.565Z,3.80
2019-03-18T23:16:28.535Z,3.70
2019-03-18T23:18:59.819Z,3.70
2019-03-18T23:21:29.289Z,3.60
2019-03-18T23:24:02.561Z,3.60
2019-03-18T23:26:32.419Z,3.60
2019-03-18T23:29:01.271Z,3.50
2019-03-18T23:31:30.363Z,3.50
2019-03-18T23:33:58.695Z,3.50
2019-03-18T23:36:32.245Z,3.40
2019-03-18T23:39:00.794Z,3.40
2019-03-18T23:41:30.244Z,3.40
2019-03-18T23:43:59.956Z,3.40
2019-03-18T23:46:29.256Z,3.40
2019-03-18T23:49:02.958Z,3.30
2019-03-18T23:51:32.827Z,3.30
2019-03-18T23:54:01.577Z,3.30
2019-03-18T23:56:30.083Z,3.20
2019-03-18T23:58:58.025Z,3.20
